Details From PAGS - GUSTAVUS
To PAGY - SKAGWAY
Flight Number -
Tags decoded
Created
Modified
Stats Distance 63 nm / 117 km
Max Altitude 0 ft / 0 m
Waypoints 2
Social Downloads 2
Likes 0
Share VATSIM

Download

Looking for another format? Having issues loading an existing format? Contact us
Advertisement - Login to hide

Notes

Requested: PAGS PAGY

Route

PAGS PAGY

ID Type Via Altitude Latitude Longitude Leg Dist Tot Dist Heading (true) Name
O PAGS APT - 0 ft / 0 m 58.42469˚ -135.70896˚ - 0 nm - GUSTAVUS
O PAGY APT - 0 ft / 0 m 59.46006˚ -135.31566˚ 63 nm 63 nm 11° / 11° SKAGWAY

Altitude Profile

Advertisement - Login to hide

PAGS

Details ICAO PAGS (GST)
Name GUSTAVUS
Region USA (Alaska)
Timezone America/Juneau (UTC-8.0)
Stats Elevation 34 ft / 10 m (AMSL)
Location 58.424690° -135.708964°
Runways 2
Magnetic Variation 18.923° E

METAR

PAGS 232256Z AUTO 29007KT 10SM FEW047 SCT075 14/02 A2985 RMK AO2 SLP108 T01390022

Decode

TAF

PAGS 231722Z 2318/2418 VRB05KT P6SM SCT010 BKN050 TEMPO 2318/2319 BKN010 FM232200 24008KT P6SM SCT050 BKN080 FM240300 23006KT P6SM VCSH BKN050 BKN080 FM240800 VRB05KT P6SM -SHRA SCT025 OVC040 AMD LTD TO CLD VIS AND WIND

Decode

Departure Runways

ID Width Length Bearing (true) Bearing (mag) Surface Threshold Offset Overrun Length
02 60 ft / 18 m 3,003 ft / 915 m 40.96° 22.04° Asphalt 0 ft / 0 m 0 ft / 0 m
11 150 ft / 46 m 6,704 ft / 2,044 m 135.06° 116.14° Asphalt 0 ft / 0 m 0 ft / 0 m
20 60 ft / 18 m 3,003 ft / 915 m 220.97° 202.05° Asphalt 0 ft / 0 m 0 ft / 0 m
29 150 ft / 46 m 6,704 ft / 2,044 m 315.08° 296.16° Asphalt 0 ft / 0 m 0 ft / 0 m

PAGY

Details ICAO PAGY (SGY)
Name SKAGWAY
Region USA (Alaska)
Timezone America/Juneau (UTC-8.0)
Stats Elevation 44 ft / 13 m (AMSL)
Location 59.460062° -135.315661°
Runways 1
Magnetic Variation 19.212° E

METAR

PAGY 232253Z AUTO 22006KT 10SM BKN070 15/02 A2980 RMK AO2 SLP092 T01500022 TSNO

Decode

TAF

TAF PAGY 231722Z 2318/2418 20004KT P6SM SCT020 BKN060 FM232000 21012KT P6SM SCT060 FM240500 21014KT P6SM SCT060 BKN110 FM240900 21014KT P6SM VCSH OVC060 AMD LTD TO CLD VIS AND WIND

Decode

Destination Runways

ID Width Length Bearing (true) Bearing (mag) Surface Threshold Offset Overrun Length
02 75 ft / 23 m 3,542 ft / 1,080 m 43.94° 24.73° Asphalt 0 ft / 0 m 299 ft / 91 m
20 75 ft / 23 m 3,542 ft / 1,080 m 223.95° 204.74° Asphalt 0 ft / 0 m 299 ft / 91 m